Time;durP1;ratioP1;P1;durP2;ratioP2;P2;SDS_P1;SDS_P2;PMS_P1;PMS_P2;Temp;Humidity;BMP_temperature;BMP_pressure;BME280_temperature;BME280_humidity;BME280_pressure;Samples;Min_cycle;Max_cycle;Signal;HPM_P1;HPM_P2
2023/04/13 00:02:12;;;;;;;;;;;;;;;15.61;36.89;94572.28;10533886;28;1504;-59
2023/04/13 00:07:15;;;;;;;;;;;;;;;15.60;36.80;94561.06;10542034;28;1905;-59
2023/04/13 00:12:19;;;;;;;;;;;;;;;15.61;36.80;94580.13;10524026;28;1472;-59
2023/04/13 00:17:21;;;;;;;;;;;;;;;15.61;36.85;94585.34;10537463;28;1444;-59
2023/04/13 00:22:23;;;;;;;;;;;;;;;15.60;36.88;94597.63;10538121;28;1245;-59
2023/04/13 00:27:26;;;;;;;;;;;;;;;15.60;36.92;94613.28;10527493;28;1973;-59
2023/04/13 00:32:26;;;;;;;;;;;;;;;15.61;36.87;94607.03;10550333;28;1146;-59
2023/04/13 00:37:28;;;;;;;;;;;;;;;15.61;36.86;94614.09;10540283;28;1472;-59
2023/04/13 00:42:29;;;;;;;;;;;;;;;15.62;36.81;94620.88;10544490;28;1484;-60
2023/04/13 00:47:31;;;;;;;;;;;;;;;15.61;36.89;94619.31;10538854;28;1913;-59
2023/04/13 00:52:33;;;;;;;;;;;;;;;15.61;36.85;94627.13;10531163;28;1397;-59
2023/04/13 00:57:33;;;;;;;;;;;;;;;15.60;36.85;94628.97;10538934;28;1288;-59
2023/04/13 01:02:34;;;;;;;;;;;;;;;15.61;36.78;94621.91;10528936;28;1464;-59
2023/04/13 01:07:43;;;;;;;;;;;;;;;15.62;36.85;94626.88;10535050;28;1906;-59
2023/04/13 01:12:51;;;;;;;;;;;;;;;15.61;36.88;94630.53;10520526;28;1445;-59
2023/04/13 01:17:55;;;;;;;;;;;;;;;15.61;36.73;94619.31;10520273;28;1182;-59
2023/04/13 01:22:56;;;;;;;;;;;;;;;15.61;36.73;94620.09;10504462;28;1491;-59
2023/04/13 01:28:04;;;;;;;;;;;;;;;15.60;36.82;94613.28;10533404;28;1910;-61
2023/04/13 01:33:05;;;;;;;;;;;;;;;15.60;36.74;94608.06;10522736;28;1444;-59
2023/04/13 01:38:05;;;;;;;;;;;;;;;15.61;36.77;94612.25;10529827;28;1425;-59
2023/04/13 01:43:07;;;;;;;;;;;;;;;15.60;36.92;94618.50;10534181;28;1495;-59
2023/04/13 01:48:17;;;;;;;;;;;;;;;15.60;36.77;94620.38;10536711;28;1968;-59
2023/04/13 01:53:18;;;;;;;;;;;;;;;15.60;36.86;94621.13;10534513;28;1690;-59
2023/04/13 01:58:19;;;;;;;;;;;;;;;15.60;36.84;94626.34;10526459;28;1436;-60
2023/04/13 02:03:21;;;;;;;;;;;;;;;15.61;36.88;94629.75;10531230;28;1127;-59
2023/04/13 02:08:23;;;;;;;;;;;;;;;15.61;36.91;94637.59;10530471;28;1901;-59
2023/04/13 02:13:24;;;;;;;;;;;;;;;15.59;36.81;94632.63;10532479;28;1488;-59
2023/04/13 02:18:29;;;;;;;;;;;;;;;15.60;36.85;94628.97;10536468;28;1095;-59
2023/04/13 02:23:30;;;;;;;;;;;;;;;15.60;36.86;94636.03;10518726;28;1464;-59
2023/04/13 02:28:32;;;;;;;;;;;;;;;15.60;36.92;94659.56;10529785;28;1901;-59
2023/04/13 02:33:32;;;;;;;;;;;;;;;15.60;36.94;94660.31;10535414;28;1099;-58
2023/04/13 02:38:32;;;;;;;;;;;;;;;15.59;36.88;94666.59;10529453;28;1480;-59
2023/04/13 02:43:34;;;;;;;;;;;;;;;15.61;36.75;94669.72;10531152;28;1484;-59
2023/04/13 02:48:35;;;;;;;;;;;;;;;15.60;36.66;94670.75;10534099;28;1914;-59
2023/04/13 02:53:35;;;;;;;;;;;;;;;15.62;36.70;94678.34;10526287;28;1167;-59
2023/04/13 02:58:36;;;;;;;;;;;;;;;15.60;36.65;94680.44;10532070;28;1508;-59
2023/04/13 03:03:36;;;;;;;;;;;;;;;15.62;36.62;94681.72;10525917;28;1171;-60
2023/04/13 03:08:37;;;;;;;;;;;;;;;15.60;36.70;94675.97;10507422;28;1969;-59
2023/04/13 03:13:37;;;;;;;;;;;;;;;15.60;36.70;94660.31;10530549;28;1559;-59
2023/04/13 03:18:37;;;;;;;;;;;;;;;15.62;36.54;94653.00;10515349;28;1325;-59
2023/04/13 03:23:39;;;;;;;;;;;;;;;15.62;36.56;94653.00;10518551;28;1650;-59
2023/04/13 03:28:39;;;;;;;;;;;;;;;15.62;36.70;94634.69;10529440;28;1905;-59
2023/04/13 03:33:39;;;;;;;;;;;;;;;15.62;36.47;94624.25;10533548;28;1865;-59
2023/04/13 03:38:40;;;;;;;;;;;;;;;15.62;36.61;94636.56;10518085;28;1500;-59
2023/04/13 03:43:41;;;;;;;;;;;;;;;15.63;36.48;94646.72;10530203;28;1650;-60
2023/04/13 03:48:41;;;;;;;;;;;;;;;15.63;36.42;94651.94;10524023;28;1910;-59
2023/04/13 03:53:42;;;;;;;;;;;;;;;15.62;36.50;94663.44;10518256;28;1017;-59
2023/04/13 03:58:42;;;;;;;;;;;;;;;15.62;36.45;94666.03;10531539;28;1460;-59
2023/04/13 04:03:43;;;;;;;;;;;;;;;15.63;36.49;94654.56;10532615;28;1573;-59
2023/04/13 04:08:48;;;;;;;;;;;;;;;15.62;36.58;94642.53;10530507;28;1913;-59
2023/04/13 04:13:49;;;;;;;;;;;;;;;15.64;36.37;94645.66;10528737;28;1831;-59
2023/04/13 04:18:49;;;;;;;;;;;;;;;15.61;36.45;94643.59;10529677;28;1456;-59
2023/04/13 04:23:51;;;;;;;;;;;;;;;15.62;36.36;94653.00;10520218;28;1164;-59
2023/04/13 04:28:51;;;;;;;;;;;;;;;15.62;36.41;94653.00;10524831;28;1918;-59
2023/04/13 04:33:52;;;;;;;;;;;;;;;15.61;36.46;94664.50;10540490;28;1099;-59
2023/04/13 04:38:56;;;;;;;;;;;;;;;15.61;36.42;94661.88;10519665;28;1452;-59
2023/04/13 04:44:01;;;;;;;;;;;;;;;15.60;36.54;94660.31;10535577;28;1559;-59
2023/04/13 04:49:01;;;;;;;;;;;;;;;15.61;36.39;94667.09;10526603;28;1955;-59
2023/04/13 04:54:02;;;;;;;;;;;;;;;15.60;36.42;94665.53;10531448;28;1151;-59
2023/04/13 04:59:02;;;;;;;;;;;;;;;15.60;36.49;94675.97;10534955;28;1441;-59
2023/04/13 05:04:03;;;;;;;;;;;;;;;15.61;36.50;94666.31;10542073;28;1098;-59
2023/04/13 05:09:04;;;;;;;;;;;;;;;15.61;36.38;94672.34;10531328;28;1905;-60
2023/04/13 05:14:05;;;;;;;;;;;;;;;15.59;36.49;94669.22;10537043;28;1662;-60
2023/04/13 05:19:07;;;;;;;;;;;;;;;15.62;36.38;94662.69;10536774;28;1503;-59
2023/04/13 05:24:10;;;;;;;;;;;;;;;15.62;36.48;94663.44;10512749;28;1131;-59
2023/04/13 05:29:11;;;;;;;;;;;;;;;15.61;36.34;94671.53;10526489;28;1973;-59
2023/04/13 05:34:12;;;;;;;;;;;;;;;15.60;36.44;94688.28;10538200;28;1079;-60
2023/04/13 05:39:12;;;;;;;;;;;;;;;15.59;36.33;94690.09;10530989;28;1417;-59
2023/04/13 05:44:13;;;;;;;;;;;;;;;15.59;36.35;94695.34;10525132;28;1681;-59
2023/04/13 05:49:14;;;;;;;;;;;;;;;15.58;36.40;94706.06;10517547;28;1905;-59
2023/04/13 05:54:16;;;;;;;;;;;;;;;15.60;36.46;94706.56;10538551;28;1146;-59
2023/04/13 05:59:26;;;;;;;;;;;;;;;15.60;36.48;94712.56;10507480;28;2313;-59
2023/04/13 06:04:27;;;;;;;;;;;;;;;15.59;36.47;94720.66;10529252;28;1504;-59
2023/04/13 06:09:27;;;;;;;;;;;;;;;15.59;36.42;94726.69;10514312;28;1909;-59
2023/04/13 06:14:39;;;;;;;;;;;;;;;15.59;36.48;94733.72;10504686;28;1029;-60
2023/04/13 06:19:40;;;;;;;;;;;;;;;15.58;36.41;94746.00;10530983;28;1444;-59
2023/04/13 06:24:40;;;;;;;;;;;;;;;15.56;36.58;94739.50;10511909;28;1087;-60
2023/04/13 06:29:40;;;;;;;;;;;;;;;15.59;36.40;94746.78;10533486;28;1909;-59
2023/04/13 06:34:41;;;;;;;;;;;;;;;15.58;36.42;94746.00;10536140;28;1110;-59
2023/04/13 06:39:42;;;;;;;;;;;;;;;15.57;36.36;94741.81;10522222;28;1483;-59
2023/04/13 06:44:44;;;;;;;;;;;;;;;15.57;36.43;94741.81;10535249;28;1197;-59
2023/04/13 06:49:45;;;;;;;;;;;;;;;15.58;36.40;94751.22;10508246;28;1946;-59
2023/04/13 06:54:45;;;;;;;;;;;;;;;15.58;36.40;94745.22;10534891;28;1122;-60
2023/04/13 06:59:45;;;;;;;;;;;;;;;15.58;36.34;94746.00;10530738;28;1606;-59
2023/04/13 07:04:46;;;;;;;;;;;;;;;15.57;36.44;94747.06;10528357;28;1388;-60
2023/04/13 07:09:47;;;;;;;;;;;;;;;15.57;36.63;94744.44;10500195;28;1898;-59
2023/04/13 07:14:48;;;;;;;;;;;;;;;15.58;36.65;94734.78;10534770;28;1134;-59
2023/04/13 07:19:48;;;;;;;;;;;;;;;15.57;36.60;94738.44;10522117;28;1499;-59
2023/04/13 07:24:49;;;;;;;;;;;;;;;15.58;36.68;94742.63;10526892;28;1130;-59
2023/04/13 07:29:50;;;;;;;;;;;;;;;15.58;36.58;94747.84;10526224;28;1910;-59
2023/04/13 07:34:50;;;;;;;;;;;;;;;15.58;36.63;94740.00;10530973;28;1448;-59
2023/04/13 07:39:52;;;;;;;;;;;;;;;15.57;36.58;94748.88;10517633;28;1420;-60
2023/04/13 07:44:55;;;;;;;;;;;;;;;15.58;36.51;94742.63;10516027;28;1163;-60
2023/04/13 07:49:56;;;;;;;;;;;;;;;15.57;36.60;94741.81;10528834;28;1930;-59
2023/04/13 07:54:56;;;;;;;;;;;;;;;15.58;36.64;94745.22;10535287;28;1204;-59
2023/04/13 07:59:57;;;;;;;;;;;;;;;15.58;36.66;94743.38;10530375;28;1503;-59
2023/04/13 08:04:58;;;;;;;;;;;;;;;15.57;36.57;94731.38;10536893;28;1099;-60
2023/04/13 08:10:05;;;;;;;;;;;;;;;15.57;36.62;94739.22;10509451;28;1914;-60
2023/04/13 08:15:06;;;;;;;;;;;;;;;15.57;36.57;94725.38;10523159;28;1244;-59
2023/04/13 08:20:07;;;;;;;;;;;;;;;15.57;36.80;94738.44;10500643;28;1488;-60
2023/04/13 08:25:08;;;;;;;;;;;;;;;15.57;36.66;94736.59;10515599;28;1202;-60
2023/04/13 08:30:10;;;;;;;;;;;;;;;15.57;36.74;94739.22;10535214;28;1963;-59
2023/04/13 08:35:11;;;;;;;;;;;;;;;15.56;36.88;94748.09;10537375;28;1486;-60
2023/04/13 08:40:12;;;;;;;;;;;;;;;15.58;36.63;94727.72;10530507;28;1373;-59
2023/04/13 08:45:13;;;;;;;;;;;;;;;15.57;36.72;94720.94;10540819;28;1103;-59
2023/04/13 08:50:15;;;;;;;;;;;;;;;15.57;36.82;94712.31;10531059;28;1894;-59
2023/04/13 08:55:15;;;;;;;;;;;;;;;15.58;36.80;94721.72;10539247;28;1866;-59
2023/04/13 09:00:16;;;;;;;;;;;;;;;15.58;36.64;94725.09;10533224;28;1495;-59
2023/04/13 09:05:19;;;;;;;;;;;;;;;15.59;36.77;94715.44;10544017;28;1099;-59
2023/04/13 09:10:29;;;;;;;;;;;;;;;15.60;36.82;94720.38;10519149;28;1958;-59
2023/04/13 09:15:32;;;;;;;;;;;;;;;15.59;36.71;94716.22;10541883;28;1233;-59
2023/04/13 09:20:33;;;;;;;;;;;;;;;15.60;36.82;94730.84;10539628;28;1436;-59
2023/04/13 09:25:33;;;;;;;;;;;;;;;15.59;36.77;94720.66;10537941;28;1134;-59
2023/04/13 09:30:34;;;;;;;;;;;;;;;15.57;36.94;94728.78;10513771;28;1987;-59
2023/04/13 09:35:35;;;;;;;;;;;;;;;15.56;37.08;94716.75;10522532;28;1523;-60
2023/04/13 09:40:46;;;;;;;;;;;;;;;15.57;36.97;94710.50;10534776;28;1504;-59
2023/04/13 09:45:47;;;;;;;;;;;;;;;15.55;37.15;94704.75;10528391;28;1143;-60
2023/04/13 09:51:00;;;;;;;;;;;;;;;15.56;37.11;94695.84;10535636;28;1973;-59
2023/04/13 09:56:02;;;;;;;;;;;;;;;15.56;37.30;94701.06;10531081;28;1409;-59
2023/04/13 10:01:03;;;;;;;;;;;;;;;15.55;37.09;94696.13;10536972;28;1102;-59
2023/04/13 10:06:09;;;;;;;;;;;;;;;15.54;37.13;94681.50;10525767;28;1409;-58
2023/04/13 10:11:18;;;;;;;;;;;;;;;15.53;37.11;94674.72;10525828;28;1471;-59
2023/04/13 10:16:38;;;;;;;;;;;;;;;15.54;37.29;94677.06;10531227;28;1104;-59
2023/04/13 10:21:39;;;;;;;;;;;;;;;15.53;37.32;94675.50;10514932;28;1527;-59
2023/04/13 10:26:46;;;;;;;;;;;;;;;15.54;37.13;94669.22;10512155;28;1902;-59
2023/04/13 10:31:49;;;;;;;;;;;;;;;15.53;37.31;94665.06;10528143;28;1461;-59
2023/04/13 10:36:52;;;;;;;;;;;;;;;15.56;37.22;94674.19;10518577;28;1036;-59
2023/04/13 10:41:57;;;;;;;;;;;;;;;15.54;37.26;94656.16;10525746;28;1445;-59
2023/04/13 10:47:04;;;;;;;;;;;;;;;15.55;37.18;94651.72;10516545;28;1961;-59
2023/04/13 10:52:05;;;;;;;;;;;;;;;15.55;37.19;94651.72;10529328;28;1480;-59
2023/04/13 10:57:06;;;;;;;;;;;;;;;15.55;37.30;94652.50;10526163;28;1680;-60
2023/04/13 11:02:10;;;;;;;;;;;;;;;15.53;37.19;94659.03;10525874;28;1171;-59
2023/04/13 11:07:15;;;;;;;;;;;;;;;15.53;37.15;94661.66;10523699;28;1918;-59
2023/04/13 11:12:16;;;;;;;;;;;;;;;15.54;37.09;94666.59;10530967;28;1460;-59
2023/04/13 11:17:17;;;;;;;;;;;;;;;15.53;37.11;94667.66;10533971;28;1244;-60
2023/04/13 11:22:18;;;;;;;;;;;;;;;15.53;37.08;94672.09;10519793;28;1468;-59
2023/04/13 11:27:27;;;;;;;;;;;;;;;15.53;37.17;94669.50;10521157;28;1909;-59
2023/04/13 11:32:28;;;;;;;;;;;;;;;15.55;36.95;94662.16;10523846;28;1499;-59
2023/04/13 11:37:31;;;;;;;;;;;;;;;15.53;37.12;94665.06;10548353;28;1114;-59
2023/04/13 11:42:31;;;;;;;;;;;;;;;15.54;36.97;94660.63;10523604;28;1440;-59
2023/04/13 11:47:31;;;;;;;;;;;;;;;15.54;37.13;94666.59;10547184;28;1905;-59
2023/04/13 11:52:32;;;;;;;;;;;;;;;15.53;37.05;94665.06;10523339;28;1466;-59
2023/04/13 11:57:33;;;;;;;;;;;;;;;15.53;36.96;94665.06;10521273;28;1413;-60
2023/04/13 12:02:33;;;;;;;;;;;;;;;15.53;36.97;94662.44;10552632;28;1151;-59
2023/04/13 12:07:40;;;;;;;;;;;;;;;15.54;36.82;94661.38;10540613;28;1988;-59
2023/04/13 12:12:40;;;;;;;;;;;;;;;15.53;36.97;94657.22;10532755;28;1531;-60
2023/04/13 12:17:42;;;;;;;;;;;;;;;15.54;36.99;94663.22;10549967;28;1162;-59
2023/04/13 12:22:43;;;;;;;;;;;;;;;15.55;36.93;94662.97;10527849;28;1464;-60
2023/04/13 12:27:43;;;;;;;;;;;;;;;15.54;36.95;94658.00;10544535;28;1971;-59
2023/04/13 12:32:47;;;;;;;;;;;;;;;15.55;36.88;94665.56;10540915;28;1468;-60
2023/04/13 12:37:47;;;;;;;;;;;;;;;15.54;36.81;94666.59;10547348;28;1111;-57
2023/04/13 12:42:47;;;;;;;;;;;;;;;15.54;36.74;94673.69;10538014;28;1476;-57
2023/04/13 12:47:48;;;;;;;;;;;;;;;15.55;36.77;94672.63;10540866;28;1906;-60
2023/04/13 12:52:48;;;;;;;;;;;;;;;15.55;36.73;94691.69;10509180;28;1483;-59
2023/04/13 12:57:49;;;;;;;;;;;;;;;15.55;36.69;94694.31;10535574;28;1464;-60
2023/04/13 13:02:51;;;;;;;;;;;;;;;15.54;36.64;94692.72;10526196;28;1108;-60
2023/04/13 13:07:52;;;;;;;;;;;;;;;15.54;36.73;94684.88;10522504;28;1909;-59
2023/04/13 13:12:53;;;;;;;;;;;;;;;15.56;36.60;94674.19;10535332;28;1452;-59
2023/04/13 13:17:53;;;;;;;;;;;;;;;15.54;36.62;94682.28;10512584;28;1421;-59
2023/04/13 13:22:54;;;;;;;;;;;;;;;15.53;36.71;94685.94;10537407;28;1195;-59
2023/04/13 13:27:56;;;;;;;;;;;;;;;15.54;36.52;94687.50;10517155;28;1902;-59
2023/04/13 13:32:57;;;;;;;;;;;;;;;15.52;36.62;94684.38;10532852;28;1162;-59
2023/04/13 13:37:58;;;;;;;;;;;;;;;15.54;36.60;94682.28;10533378;28;1472;-59
2023/04/13 13:42:59;;;;;;;;;;;;;;;15.53;36.53;94680.72;10527525;28;1425;-59
2023/04/13 13:48:00;;;;;;;;;;;;;;;15.53;36.52;94688.56;10531680;28;1898;-60
2023/04/13 13:53:00;;;;;;;;;;;;;;;15.52;36.55;94694.81;10537085;28;1291;-60
2023/04/13 13:58:01;;;;;;;;;;;;;;;15.53;36.50;94680.72;10532393;28;1440;-59
2023/04/13 14:03:01;;;;;;;;;;;;;;;15.54;36.53;94678.91;10539444;28;1107;-59
2023/04/13 14:08:02;;;;;;;;;;;;;;;15.54;36.51;94671.81;10523448;28;1883;-59
2023/04/13 14:13:03;;;;;;;;;;;;;;;15.55;36.52;94672.63;10537353;28;1559;-60
2023/04/13 14:18:03;;;;;;;;;;;;;;;15.53;36.61;94665.06;10524279;28;1127;-59
2023/04/13 14:23:04;;;;;;;;;;;;;;;15.51;36.59;94664.53;10529239;28;1457;-60
2023/04/13 14:28:05;;;;;;;;;;;;;;;15.52;36.53;94679.16;10534515;28;1953;-59
2023/04/13 14:33:06;;;;;;;;;;;;;;;15.51;36.60;94676.81;10529856;28;1675;-59
2023/04/13 14:38:07;;;;;;;;;;;;;;;15.52;36.62;94694.06;10531060;28;1127;-59
2023/04/13 14:43:08;;;;;;;;;;;;;;;15.51;36.72;94695.09;10514187;28;1538;-60
2023/04/13 14:48:08;;;;;;;;;;;;;;;15.52;36.61;94681.75;10510981;28;1973;-59
2023/04/13 14:53:09;;;;;;;;;;;;;;;15.51;36.86;94661.16;10517207;28;1189;-60
2023/04/13 14:58:10;;;;;;;;;;;;;;;15.51;36.67;94651.47;10535877;28;1499;-59
2023/04/13 15:03:11;;;;;;;;;;;;;;;15.50;36.75;94644.69;10543369;28;1063;-58
2023/04/13 15:08:14;;;;;;;;;;;;;;;15.51;36.76;94635.81;10525785;28;1902;-59
2023/04/13 15:13:14;;;;;;;;;;;;;;;15.48;36.80;94652.78;10518861;28;1439;-59
2023/04/13 15:18:15;;;;;;;;;;;;;;;15.49;36.69;94687.53;10531970;28;1444;-59
2023/04/13 15:23:16;;;;;;;;;;;;;;;15.48;36.88;94684.13;10509771;28;1100;-59
2023/04/13 15:28:17;;;;;;;;;;;;;;;15.49;36.75;94690.16;10528521;28;1902;-58
2023/04/13 15:33:17;;;;;;;;;;;;;;;15.47;36.74;94700.06;10533960;28;1170;-58
2023/04/13 15:38:18;;;;;;;;;;;;;;;15.48;36.99;94699.81;10527657;28;1645;-58
2023/04/13 15:43:18;;;;;;;;;;;;;;;15.48;36.89;94699.81;10498309;28;1877;-58
2023/04/13 15:48:19;;;;;;;;;;;;;;;15.48;36.65;94697.19;10533265;28;1968;-58
2023/04/13 15:53:20;;;;;;;;;;;;;;;15.49;36.68;94684.91;10522987;28;1432;-58
2023/04/13 15:58:21;;;;;;;;;;;;;;;15.50;36.55;94678.63;10529687;28;1461;-59
2023/04/13 16:03:22;;;;;;;;;;;;;;;15.49;36.67;94674.47;10531049;28;1108;-58
2023/04/13 16:08:23;;;;;;;;;;;;;;;15.48;36.62;94683.34;10522935;28;1906;-59
2023/04/13 16:13:37;;;;;;;;;;;;;;;15.46;36.62;94698.50;10528100;28;1468;-59
2023/04/13 16:18:39;;;;;;;;;;;;;;;15.48;36.53;94693.78;10529969;28;1024;-59
2023/04/13 16:23:39;;;;;;;;;;;;;;;15.47;36.47;94697.47;10500079;28;1713;-58
2023/04/13 16:28:41;;;;;;;;;;;;;;;15.50;36.36;94694.31;10532125;28;1968;-59
2023/04/13 16:33:42;;;;;;;;;;;;;;;15.49;36.45;94700.59;10540523;28;1091;-59
2023/04/13 16:38:44;;;;;;;;;;;;;;;15.48;36.30;94705.03;10526354;28;1425;-58
2023/04/13 16:43:44;;;;;;;;;;;;;;;15.50;36.37;94725.66;10536319;28;1634;-58
2023/04/13 16:48:45;;;;;;;;;;;;;;;15.48;36.41;94728.53;10531285;28;1886;-58
2023/04/13 16:53:47;;;;;;;;;;;;;;;15.48;36.54;94741.59;10523076;28;1536;-59
2023/04/13 16:58:47;;;;;;;;;;;;;;;15.50;36.31;94735.34;10539542;28;1059;-58
2023/04/13 17:03:48;;;;;;;;;;;;;;;15.51;36.18;94732.44;10518553;28;1557;-58
2023/04/13 17:08:48;;;;;;;;;;;;;;;15.49;36.38;94731.94;10539231;28;1906;-58
2023/04/13 17:13:50;;;;;;;;;;;;;;;15.51;36.44;94740.28;10535208;28;1615;-58
2023/04/13 17:18:50;;;;;;;;;;;;;;;15.50;36.25;94748.38;10536126;28;1460;-59
2023/04/13 17:23:52;;;;;;;;;;;;;;;15.50;36.31;94735.34;10531406;28;1115;-58
2023/04/13 17:28:52;;;;;;;;;;;;;;;15.50;36.29;94730.88;10512409;28;1883;-59
2023/04/13 17:33:53;;;;;;;;;;;;;;;15.49;36.14;94716.25;10538915;28;1099;-58
2023/04/13 17:38:55;;;;;;;;;;;;;;;15.49;36.13;94721.47;10536222;28;1655;-58
2023/04/13 17:43:56;;;;;;;;;;;;;;;15.50;36.06;94717.81;10536354;28;1619;-58
2023/04/13 17:48:57;;;;;;;;;;;;;;;15.48;36.24;94721.75;10535126;28;1910;-58
2023/04/13 17:53:57;;;;;;;;;;;;;;;15.48;36.11;94731.13;10495712;28;1473;-58
2023/04/13 17:58:58;;;;;;;;;;;;;;;15.49;36.03;94737.16;10538642;28;1500;-58
2023/04/13 18:03:59;;;;;;;;;;;;;;;15.49;36.14;94745.00;10514223;28;1103;-58
2023/04/13 18:08:59;;;;;;;;;;;;;;;15.50;36.10;94748.38;10534621;28;1914;-59
2023/04/13 18:14:00;;;;;;;;;;;;;;;15.48;36.09;94750.47;10534674;28;1665;-58
2023/04/13 18:19:10;;;;;;;;;;;;;;;15.49;36.09;94752.81;10528028;28;1502;-58
2023/04/13 18:24:11;;;;;;;;;;;;;;;15.46;36.02;94759.34;10522789;28;1155;-59
2023/04/13 18:29:12;;;;;;;;;;;;;;;15.46;36.11;94769.78;10532695;28;1906;-58
2023/04/13 18:34:23;;;;;;;;;;;;;;;15.48;36.16;94771.38;10531342;28;1130;-58
2023/04/13 18:39:24;;;;;;;;;;;;;;;15.47;36.04;94770.59;10532197;28;1480;-58
2023/04/13 18:44:25;;;;;;;;;;;;;;;15.47;36.15;94781.03;10535354;28;1808;-58
2023/04/13 18:49:26;;;;;;;;;;;;;;;15.45;36.19;94768.25;10534837;28;1910;-58
2023/04/13 18:54:28;;;;;;;;;;;;;;;15.44;36.08;94781.56;10539317;28;1194;-58
2023/04/13 18:59:29;;;;;;;;;;;;;;;15.44;36.20;94777.13;10534508;28;1354;-58
2023/04/13 19:04:30;;;;;;;;;;;;;;;15.45;36.20;94762.25;10535385;28;1126;-58
2023/04/13 19:09:30;;;;;;;;;;;;;;;15.46;36.11;94758.56;10525648;28;1901;-60
2023/04/13 19:14:30;;;;;;;;;;;;;;;15.46;36.24;94761.19;10532431;28;1116;-60
2023/04/13 19:19:31;;;;;;;;;;;;;;;15.45;36.20;94773.47;10524347;28;1441;-60
2023/04/13 19:24:31;;;;;;;;;;;;;;;15.45;36.19;94783.13;10526834;28;1166;-60
2023/04/13 19:29:33;;;;;;;;;;;;;;;15.44;36.19;94799.81;10524105;28;1971;-58
2023/04/13 19:34:33;;;;;;;;;;;;;;;15.45;36.15;94796.19;10533583;28;1226;-57
2023/04/13 19:39:34;;;;;;;;;;;;;;;15.46;36.02;94797.75;10508273;28;1463;-58
2023/04/13 19:44:34;;;;;;;;;;;;;;;15.44;36.06;94797.22;10532817;28;1142;-58
2023/04/13 19:49:34;;;;;;;;;;;;;;;15.43;36.09;94796.44;10510060;28;1978;-58
2023/04/13 19:54:35;;;;;;;;;;;;;;;15.43;36.14;94801.66;10542074;28;1142;-59
2023/04/13 19:59:36;;;;;;;;;;;;;;;15.42;36.05;94786.22;10534598;28;1467;-59
2023/04/13 20:04:36;;;;;;;;;;;;;;;15.43;36.04;94791.22;10532461;28;1361;-59
2023/04/13 20:09:36;;;;;;;;;;;;;;;15.43;36.03;94800.88;10535246;28;1984;-59
2023/04/13 20:14:40;;;;;;;;;;;;;;;15.42;36.13;94794.88;10541020;28;1209;-58
2023/04/13 20:19:41;;;;;;;;;;;;;;;15.43;36.12;94791.22;10521517;28;1448;-59
2023/04/13 20:24:41;;;;;;;;;;;;;;;15.42;35.97;94783.59;10533282;28;1047;-59
2023/04/13 20:29:42;;;;;;;;;;;;;;;15.42;36.20;94783.59;10528670;28;1910;-59
2023/04/13 20:34:43;;;;;;;;;;;;;;;15.42;36.01;94794.88;10525345;28;1460;-58
2023/04/13 20:39:50;;;;;;;;;;;;;;;15.41;35.98;94788.03;10536410;28;1468;-59
2023/04/13 20:44:56;;;;;;;;;;;;;;;15.42;36.03;94794.88;10540690;28;1032;-59
2023/04/13 20:49:58;;;;;;;;;;;;;;;15.42;36.05;94807.13;10512279;28;1976;-59
2023/04/13 20:54:59;;;;;;;;;;;;;;;15.42;35.98;94809.72;10542468;28;1400;-59
2023/04/13 21:00:00;;;;;;;;;;;;;;;15.41;35.94;94806.31;10536526;28;1119;-58
2023/04/13 21:05:02;;;;;;;;;;;;;;;15.41;36.02;94814.16;10532133;28;1448;-59
2023/04/13 21:10:02;;;;;;;;;;;;;;;15.42;35.97;94799.28;10530815;28;1914;-59
2023/04/13 21:15:03;;;;;;;;;;;;;;;15.41;35.94;94787.28;10539542;28;1127;-59
2023/04/13 21:20:07;;;;;;;;;;;;;;;15.40;36.06;94789.09;10525216;28;1452;-59
2023/04/13 21:25:08;;;;;;;;;;;;;;;15.39;36.07;94782.31;10513081;28;1553;-60
2023/04/13 21:30:09;;;;;;;;;;;;;;;15.40;35.92;94772.66;10486763;28;1906;-58
2023/04/13 21:35:10;;;;;;;;;;;;;;;15.40;36.04;94772.66;10519611;28;1411;-59
2023/04/13 21:40:10;;;;;;;;;;;;;;;15.38;36.15;94762.47;10531825;28;1607;-59
2023/04/13 21:45:11;;;;;;;;;;;;;;;15.38;35.92;94762.47;10520276;28;1182;-59
2023/04/13 21:50:12;;;;;;;;;;;;;;;15.41;35.87;94750.72;10535385;28;1965;-59
2023/04/13 21:55:16;;;;;;;;;;;;;;;15.40;35.87;94749.16;10537159;28;1562;-59
2023/04/13 22:00:17;;;;;;;;;;;;;;;15.40;36.02;94757.78;10533117;28;1595;-58
2023/04/13 22:05:17;;;;;;;;;;;;;;;15.40;35.89;94736.09;10530586;28;1484;-59
2023/04/13 22:10:18;;;;;;;;;;;;;;;15.39;35.98;94737.91;10530109;28;1906;-58
2023/04/13 22:15:19;;;;;;;;;;;;;;;15.40;35.93;94738.69;10522714;28;1488;-59
2023/04/13 22:20:20;;;;;;;;;;;;;;;15.38;35.97;94736.38;10531964;28;1459;-59
2023/04/13 22:25:24;;;;;;;;;;;;;;;15.38;36.02;94735.56;10510563;28;1119;-59
2023/04/13 22:30:24;;;;;;;;;;;;;;;15.36;35.95;94743.69;10511146;28;1905;-60
2023/04/13 22:35:25;;;;;;;;;;;;;;;15.38;36.04;94748.63;10536085;28;1185;-59
2023/04/13 22:40:40;;;;;;;;;;;;;;;15.37;36.00;94745.22;10515757;28;1642;-59
2023/04/13 22:45:41;;;;;;;;;;;;;;;15.37;35.99;94744.47;10535719;28;1106;-59
2023/04/13 22:50:41;;;;;;;;;;;;;;;15.38;35.90;94754.63;10526830;28;1909;-59
2023/04/13 22:55:42;;;;;;;;;;;;;;;15.37;35.97;94754.91;10535159;28;1095;-58
2023/04/13 23:00:42;;;;;;;;;;;;;;;15.37;36.06;94757.53;10523295;28;1444;-59
2023/04/13 23:05:52;;;;;;;;;;;;;;;15.36;35.89;94751.50;10539371;28;1170;-59
2023/04/13 23:10:53;;;;;;;;;;;;;;;15.35;35.85;94752.53;10528879;28;1910;-59
2023/04/13 23:15:58;;;;;;;;;;;;;;;15.37;35.84;94752.31;10524548;28;1428;-59
2023/04/13 23:21:09;;;;;;;;;;;;;;;15.36;35.91;94753.34;10541288;28;1102;-59
2023/04/13 23:26:10;;;;;;;;;;;;;;;15.36;36.01;94764.56;10529713;28;1701;-59
2023/04/13 23:31:10;;;;;;;;;;;;;;;15.36;36.04;94754.13;10531790;28;1910;-58
2023/04/13 23:36:11;;;;;;;;;;;;;;;15.36;35.91;94748.09;10527174;28;1170;-59
2023/04/13 23:41:12;;;;;;;;;;;;;;;15.36;35.84;94746.28;10510136;28;1410;-59
2023/04/13 23:46:14;;;;;;;;;;;;;;;15.35;35.83;94751.78;10533668;28;1126;-58
2023/04/13 23:51:14;;;;;;;;;;;;;;;15.35;35.85;94746.56;10533944;28;1910;-59
2023/04/13 23:56:15;;;;;;;;;;;;;;;15.35;35.84;94746.56;10538128;28;1040;-59
